createdAt,value
2018-05-13T00:00:04.539Z,13.63
2018-05-13T00:02:33.022Z,12.50
2018-05-13T00:05:01.497Z,13.47
2018-05-13T00:07:29.956Z,12.87
2018-05-13T00:09:58.428Z,12.67
2018-05-13T00:12:26.919Z,12.70
2018-05-13T00:14:55.389Z,13.37
2018-05-13T00:17:24.079Z,12.53
2018-05-13T00:19:52.555Z,15.60
2018-05-13T00:22:21.002Z,12.07
2018-05-13T00:24:49.515Z,13.37
2018-05-13T00:27:18.008Z,12.27
2018-05-13T00:29:46.634Z,14.17
2018-05-13T00:32:15.086Z,13.60
2018-05-13T00:34:43.536Z,14.80
2018-05-13T00:37:12.043Z,13.70
2018-05-13T00:39:40.537Z,14.33
2018-05-13T00:42:09.097Z,14.13
2018-05-13T00:44:38.352Z,14.50
2018-05-13T00:47:06.863Z,14.03
2018-05-13T00:49:35.375Z,15.07
2018-05-13T00:52:03.838Z,15.13
2018-05-13T00:54:49.856Z,12.63
2018-05-13T00:57:18.285Z,13.80
2018-05-13T00:59:46.752Z,14.60
2018-05-13T01:02:15.292Z,14.07
2018-05-13T01:04:43.738Z,13.07
2018-05-13T01:07:12.250Z,15.27
2018-05-13T01:09:40.725Z,13.90
2018-05-13T01:12:09.223Z,15.53
2018-05-13T01:14:37.795Z,14.47
2018-05-13T01:17:06.291Z,14.27
2018-05-13T01:19:34.751Z,14.40
2018-05-13T01:22:03.374Z,15.07
2018-05-13T01:24:31.797Z,14.57
2018-05-13T01:27:00.256Z,14.23
2018-05-13T01:29:29.577Z,14.13
2018-05-13T01:31:58.137Z,14.67
2018-05-13T01:34:26.639Z,16.10
2018-05-13T01:36:55.099Z,14.80
2018-05-13T01:39:23.588Z,15.40
2018-05-13T01:41:52.825Z,16.17
2018-05-13T01:44:22.156Z,13.50
2018-05-13T01:46:50.629Z,14.37
2018-05-13T01:49:19.100Z,14.30
2018-05-13T01:51:47.564Z,14.40
2018-05-13T01:54:17.708Z,14.97
2018-05-13T01:56:46.183Z,14.63
2018-05-13T01:59:14.627Z,15.07
2018-05-13T02:01:43.877Z,13.57
2018-05-13T02:04:12.421Z,14.33
2018-05-13T02:06:40.942Z,14.50
2018-05-13T02:09:24.286Z,14.53
2018-05-13T02:11:52.734Z,14.47
2018-05-13T02:14:21.228Z,13.73
2018-05-13T02:16:49.724Z,16.77
2018-05-13T02:19:19.022Z,14.27
2018-05-13T02:21:47.501Z,14.80
2018-05-13T02:24:15.998Z,13.70
2018-05-13T02:26:44.556Z,15.80
2018-05-13T02:29:12.997Z,15.50
2018-05-13T02:31:41.514Z,16.10
2018-05-13T02:34:09.989Z,15.63
2018-05-13T02:36:38.474Z,15.80
2018-05-13T02:39:07.050Z,16.40
2018-05-13T02:41:35.500Z,18.00
2018-05-13T02:44:03.967Z,15.27
2018-05-13T02:46:32.466Z,15.67
2018-05-13T02:49:00.972Z,16.20
2018-05-13T02:51:29.521Z,19.03
2018-05-13T02:53:57.995Z,17.47
2018-05-13T02:56:26.446Z,16.43
2018-05-13T02:58:54.933Z,17.53
2018-05-13T03:01:23.442Z,16.33
2018-05-13T03:03:51.947Z,18.23
2018-05-13T03:06:20.418Z,16.97
2018-05-13T03:08:49.004Z,17.90
2018-05-13T03:11:17.502Z,19.57
2018-05-13T03:13:46.013Z,17.53
2018-05-13T03:16:14.557Z,18.33
2018-05-13T03:18:43.013Z,18.27
2018-05-13T03:21:11.464Z,18.03
2018-05-13T03:23:40.023Z,18.10
2018-05-13T03:26:09.274Z,17.70
2018-05-13T03:28:37.740Z,19.20
2018-05-13T03:31:06.182Z,17.63
2018-05-13T03:33:34.625Z,17.73
2018-05-13T03:36:03.089Z,19.30
2018-05-13T03:38:31.537Z,19.33
2018-05-13T03:41:00.151Z,18.10
2018-05-13T03:43:28.697Z,20.37
2018-05-13T03:45:57.414Z,20.30
2018-05-13T03:48:25.877Z,21.27
2018-05-13T03:50:54.317Z,22.27
2018-05-13T03:53:23.665Z,21.90
2018-05-13T03:55:52.140Z,22.30
2018-05-13T03:58:20.635Z,23.00
2018-05-13T04:00:49.187Z,22.37
2018-05-13T04:03:17.706Z,23.00
2018-05-13T04:05:46.282Z,22.20
2018-05-13T04:08:50.217Z,22.93
2018-05-13T04:11:36.249Z,21.70
2018-05-13T04:14:23.148Z,21.77
2018-05-13T04:16:51.624Z,23.10
2018-05-13T04:19:20.124Z,23.57
2018-05-13T04:21:48.609Z,27.07
2018-05-13T04:24:17.100Z,25.00
2018-05-13T04:26:45.575Z,25.63
2018-05-13T04:29:14.115Z,25.73
2018-05-13T04:31:42.626Z,26.43
2018-05-13T04:34:11.100Z,26.47
2018-05-13T04:36:39.586Z,24.40
2018-05-13T04:39:08.038Z,25.40
2018-05-13T04:41:36.509Z,25.27
2018-05-13T04:44:04.999Z,27.30
2018-05-13T04:46:33.455Z,25.97
2018-05-13T04:49:02.773Z,25.43
2018-05-13T04:51:31.217Z,25.60
2018-05-13T04:53:59.704Z,26.30
2018-05-13T04:56:28.255Z,26.00
2018-05-13T04:58:57.068Z,27.33
2018-05-13T05:01:25.551Z,27.23
2018-05-13T05:03:54.173Z,28.53
2018-05-13T05:06:22.755Z,26.43
2018-05-13T05:08:51.248Z,29.30
2018-05-13T05:11:20.429Z,26.27
2018-05-13T05:13:48.907Z,24.10
2018-05-13T05:16:17.393Z,28.33
2018-05-13T05:18:45.975Z,25.07
2018-05-13T05:21:14.526Z,25.00
2018-05-13T05:23:42.985Z,28.70
2018-05-13T05:26:11.551Z,27.47
2018-05-13T05:28:39.994Z,27.93
2018-05-13T05:31:08.612Z,27.23
2018-05-13T05:33:37.124Z,27.30
2018-05-13T05:36:05.590Z,28.53
2018-05-13T05:38:34.195Z,29.03
2018-05-13T05:41:02.721Z,30.10
2018-05-13T05:43:31.266Z,28.27
2018-05-13T05:45:59.893Z,27.10
2018-05-13T05:48:28.456Z,26.53
2018-05-13T05:50:56.903Z,26.90
2018-05-13T05:53:25.336Z,27.20
2018-05-13T05:55:53.807Z,28.23
2018-05-13T05:58:22.592Z,28.70
2018-05-13T06:00:54.033Z,27.80
2018-05-13T06:03:22.779Z,28.57
2018-05-13T06:05:51.214Z,28.10
2018-05-13T06:08:20.562Z,35.10
2018-05-13T06:10:54.320Z,29.30
2018-05-13T06:13:22.786Z,26.77
2018-05-13T06:15:51.258Z,29.90
2018-05-13T06:18:20.104Z,27.77
2018-05-13T06:20:48.995Z,28.27
2018-05-13T06:23:17.950Z,29.47
2018-05-13T06:25:47.202Z,27.13
2018-05-13T06:28:15.718Z,28.63
2018-05-13T06:30:44.206Z,27.33
2018-05-13T06:33:12.700Z,26.63
2018-05-13T06:35:41.178Z,27.37
2018-05-13T06:38:09.626Z,29.33
2018-05-13T06:40:38.123Z,31.47
2018-05-13T06:43:06.552Z,28.67
2018-05-13T06:45:35.015Z,29.40
2018-05-13T06:48:03.524Z,26.90
2018-05-13T06:50:32.035Z,26.93
2018-05-13T06:53:00.469Z,26.70
2018-05-13T06:55:28.949Z,27.33
2018-05-13T06:57:57.416Z,26.73
2018-05-13T07:00:26.862Z,25.00
2018-05-13T07:02:55.560Z,23.47
2018-05-13T07:05:25.023Z,23.07
2018-05-13T07:07:53.499Z,20.37
2018-05-13T07:10:21.966Z,20.23
2018-05-13T07:12:50.455Z,21.03
2018-05-13T07:15:18.923Z,19.40
2018-05-13T07:17:47.486Z,20.83
2018-05-13T07:20:15.919Z,20.37
2018-05-13T07:22:44.367Z,20.40
2018-05-13T07:25:12.832Z,19.17
2018-05-13T07:27:41.256Z,18.13
2018-05-13T07:30:09.831Z,18.73
2018-05-13T07:32:39.126Z,18.07
2018-05-13T07:35:07.602Z,19.50
2018-05-13T07:37:36.057Z,21.50
2018-05-13T07:40:04.525Z,20.87
2018-05-13T07:42:34.030Z,17.97
2018-05-13T07:45:02.527Z,20.53
2018-05-13T07:47:31.260Z,20.23
2018-05-13T07:49:59.769Z,20.30
2018-05-13T07:52:28.759Z,20.50
2018-05-13T07:54:57.237Z,21.10
2018-05-13T07:57:25.680Z,22.00
2018-05-13T07:59:54.170Z,21.83
2018-05-13T08:02:23.415Z,22.40
2018-05-13T08:04:52.668Z,21.87
2018-05-13T08:07:21.152Z,21.17
2018-05-13T08:09:50.607Z,22.03
2018-05-13T08:12:19.098Z,23.83
2018-05-13T08:14:47.682Z,22.57
2018-05-13T08:17:16.833Z,21.03
2018-05-13T08:19:45.651Z,21.10
2018-05-13T08:22:14.339Z,21.67
2018-05-13T08:24:42.888Z,22.53
2018-05-13T08:27:11.360Z,25.20
2018-05-13T08:29:39.876Z,26.47
2018-05-13T08:32:08.487Z,29.17
2018-05-13T08:34:36.980Z,27.03
2018-05-13T08:37:05.585Z,28.70
2018-05-13T08:39:34.123Z,28.20
2018-05-13T08:42:02.768Z,32.80
2018-05-13T08:44:31.249Z,30.03
2018-05-13T08:47:04.085Z,31.30
2018-05-13T08:49:32.567Z,32.60
2018-05-13T08:52:04.487Z,34.63
2018-05-13T08:54:33.901Z,35.50
2018-05-13T08:57:02.609Z,35.97
2018-05-13T08:59:31.090Z,39.07
2018-05-13T09:01:59.569Z,38.60
2018-05-13T09:04:28.282Z,39.90
2018-05-13T09:06:56.788Z,39.50
2018-05-13T09:09:25.290Z,41.37
2018-05-13T09:11:53.749Z,38.37
2018-05-13T09:14:22.292Z,39.93
2018-05-13T09:16:50.712Z,39.83
2018-05-13T09:19:19.251Z,48.93
2018-05-13T09:21:48.251Z,43.70
2018-05-13T09:24:17.194Z,42.00
2018-05-13T09:26:45.710Z,45.97
2018-05-13T09:29:14.204Z,42.43
2018-05-13T09:31:46.731Z,41.20
2018-05-13T09:34:15.199Z,44.47
2018-05-13T09:36:43.682Z,45.03
2018-05-13T09:39:12.347Z,43.93
2018-05-13T09:41:40.892Z,47.83
2018-05-13T09:44:09.345Z,46.60
2018-05-13T09:46:37.807Z,47.97
2018-05-13T09:49:07.650Z,46.73
2018-05-13T09:51:36.111Z,48.03
2018-05-13T09:54:04.597Z,47.63
2018-05-13T09:56:33.111Z,50.23
2018-05-13T09:59:05.127Z,49.60
2018-05-13T10:01:35.733Z,50.90
2018-05-13T10:04:05.440Z,47.97
2018-05-13T10:06:33.948Z,50.50
2018-05-13T10:09:02.460Z,49.43
2018-05-13T10:11:31.252Z,48.80
2018-05-13T10:13:59.763Z,46.43
2018-05-13T10:16:28.305Z,46.67
2018-05-13T10:18:56.887Z,50.13
2018-05-13T10:21:25.377Z,49.93
2018-05-13T10:23:53.794Z,50.87
2018-05-13T10:26:22.319Z,51.33
2018-05-13T10:28:53.807Z,49.67
2018-05-13T10:31:24.295Z,50.17
2018-05-13T10:33:52.822Z,55.73
2018-05-13T10:36:21.413Z,56.73
2018-05-13T10:38:49.930Z,57.83
2018-05-13T10:41:18.425Z,61.40
2018-05-13T10:43:46.891Z,64.70
2018-05-13T10:46:15.972Z,62.30
2018-05-13T10:48:44.489Z,63.17
2018-05-13T10:51:13.018Z,69.20
2018-05-13T10:53:41.506Z,73.90
2018-05-13T10:56:09.946Z,64.00
2018-05-13T10:58:38.442Z,67.90
2018-05-13T11:01:07.036Z,69.50
2018-05-13T11:03:35.542Z,68.77
2018-05-13T11:06:04.063Z,75.73
2018-05-13T11:08:32.599Z,81.13
2018-05-13T11:11:01.093Z,83.63
2018-05-13T11:13:29.822Z,86.73
2018-05-13T11:15:58.341Z,88.77
2018-05-13T11:18:26.852Z,91.23
2018-05-13T11:20:56.722Z,102.23
2018-05-13T11:23:25.236Z,108.23
2018-05-13T11:25:55.306Z,118.97
2018-05-13T11:28:23.846Z,119.90
2018-05-13T11:30:52.465Z,129.40
2018-05-13T11:33:26.563Z,126.87
2018-05-13T11:36:04.832Z,116.37
2018-05-13T11:38:34.822Z,119.47
2018-05-13T11:41:43.121Z,120.63
2018-05-13T11:44:15.126Z,119.30
2018-05-13T11:49:49.972Z,110.33
2018-05-13T11:52:20.061Z,110.23
2018-05-13T11:57:27.660Z,102.30
2018-05-13T11:59:56.172Z,99.27
2018-05-13T12:02:24.811Z,98.47
2018-05-13T12:04:53.334Z,92.07
2018-05-13T12:07:22.089Z,100.20
2018-05-13T12:09:50.791Z,88.87
2018-05-13T12:12:19.465Z,82.33
2018-05-13T12:14:48.767Z,92.00
2018-05-13T12:17:19.591Z,90.90
2018-05-13T12:19:48.178Z,98.23
2018-05-13T12:22:16.707Z,106.67
2018-05-13T12:24:45.277Z,111.37
2018-05-13T12:30:09.626Z,110.27
2018-05-13T12:32:38.210Z,120.00
2018-05-13T12:35:06.854Z,111.70
2018-05-13T12:37:35.556Z,104.27
2018-05-13T12:40:04.201Z,105.63
2018-05-13T12:42:36.421Z,94.70
2018-05-13T12:45:05.091Z,87.77
2018-05-13T12:47:34.082Z,84.57
2018-05-13T12:50:12.966Z,88.73
2018-05-13T12:52:44.019Z,89.87
2018-05-13T12:58:31.655Z,93.23
2018-05-13T13:01:01.012Z,95.90
2018-05-13T13:03:29.848Z,100.27
2018-05-13T13:06:06.131Z,101.17
2018-05-13T13:08:34.901Z,91.20
2018-05-13T13:11:04.028Z,97.20
2018-05-13T13:13:33.638Z,95.97
2018-05-13T13:16:14.870Z,92.03
2018-05-13T13:21:52.277Z,93.00
2018-05-13T13:33:32.201Z,80.70
2018-05-13T13:36:09.004Z,73.67
2018-05-13T13:38:39.522Z,86.07
2018-05-13T13:41:08.061Z,86.07
2018-05-13T13:43:39.826Z,85.27
2018-05-13T13:46:09.469Z,81.37
2018-05-13T13:51:39.151Z,81.47
2018-05-13T13:54:09.617Z,86.37
2018-05-13T13:56:42.855Z,89.37
2018-05-13T14:02:21.639Z,92.07
2018-05-13T14:04:50.246Z,93.40
2018-05-13T14:07:28.272Z,105.17
2018-05-13T14:09:58.361Z,107.67
2018-05-13T14:12:27.052Z,100.70
2018-05-13T14:15:08.071Z,109.53
2018-05-13T14:17:36.572Z,113.40
2018-05-13T14:20:05.179Z,106.90
2018-05-13T14:22:33.736Z,109.40
2018-05-13T14:25:02.296Z,92.43
2018-05-13T14:27:30.849Z,90.10
2018-05-13T14:29:59.347Z,92.47
2018-05-13T14:32:27.918Z,94.40
2018-05-13T14:34:56.464Z,100.93
2018-05-13T14:37:25.119Z,94.63
2018-05-13T14:40:08.562Z,73.73
2018-05-13T14:42:37.131Z,75.17
2018-05-13T14:45:05.680Z,69.87
2018-05-13T14:47:34.215Z,70.60
2018-05-13T14:50:02.769Z,72.73
2018-05-13T14:52:31.322Z,71.43
2018-05-13T14:54:59.891Z,84.93
2018-05-13T14:57:28.424Z,75.87
2018-05-13T14:59:56.943Z,80.43
2018-05-13T15:02:25.479Z,80.83
2018-05-13T15:04:54.060Z,82.47
2018-05-13T15:07:32.151Z,80.90
2018-05-13T15:10:00.628Z,80.70
2018-05-13T15:12:29.129Z,86.27
2018-05-13T15:14:57.561Z,79.37
2018-05-13T15:17:26.811Z,78.80
2018-05-13T15:19:55.291Z,70.47
2018-05-13T15:22:29.347Z,70.80
2018-05-13T15:24:58.647Z,70.60
2018-05-13T15:27:30.680Z,64.90
2018-05-13T15:29:59.423Z,74.50
2018-05-13T15:32:29.051Z,74.77
2018-05-13T15:34:57.610Z,70.97
2018-05-13T15:37:26.100Z,72.50
2018-05-13T15:39:56.834Z,69.97
2018-05-13T15:42:25.370Z,73.30
2018-05-13T15:44:53.889Z,65.47
2018-05-13T15:47:22.452Z,66.07
2018-05-13T15:49:54.760Z,67.80
2018-05-13T15:52:26.487Z,74.70
2018-05-13T15:54:55.159Z,65.90
2018-05-13T15:57:23.656Z,58.63
2018-05-13T15:59:52.188Z,55.30
2018-05-13T16:02:20.701Z,54.37
2018-05-13T16:04:49.235Z,47.03
2018-05-13T16:07:18.549Z,48.40
2018-05-13T16:09:47.845Z,46.23
2018-05-13T16:12:16.406Z,46.50
2018-05-13T16:14:44.924Z,48.03
2018-05-13T16:17:13.465Z,47.03
2018-05-13T16:19:42.079Z,46.00
2018-05-13T16:22:10.536Z,45.03
2018-05-13T16:24:39.005Z,44.97
2018-05-13T16:27:07.730Z,50.33
2018-05-13T16:29:36.387Z,43.83
2018-05-13T16:32:04.949Z,48.67
2018-05-13T16:34:33.424Z,43.73
2018-05-13T16:37:02.514Z,49.10
2018-05-13T16:39:31.322Z,46.77
2018-05-13T16:42:00.512Z,49.63
2018-05-13T16:44:30.055Z,47.20
2018-05-13T16:46:58.784Z,47.70
2018-05-13T16:49:28.569Z,46.77
2018-05-13T16:51:57.795Z,55.73
2018-05-13T16:54:26.800Z,51.40
2018-05-13T16:56:56.602Z,52.20
2018-05-13T16:59:25.583Z,52.97
2018-05-13T17:01:54.489Z,52.13
2018-05-13T17:04:23.599Z,59.00
2018-05-13T17:06:52.526Z,52.17
2018-05-13T17:09:21.552Z,57.33
2018-05-13T17:11:50.496Z,58.07
2018-05-13T17:14:23.448Z,57.53
2018-05-13T17:16:52.841Z,52.27
2018-05-13T17:19:21.645Z,54.40
2018-05-13T17:21:58.603Z,55.60
2018-05-13T17:24:43.346Z,58.13
2018-05-13T17:27:13.785Z,61.47
2018-05-13T17:29:43.159Z,61.33
2018-05-13T17:32:12.637Z,63.70
2018-05-13T17:34:41.699Z,60.20
2018-05-13T17:37:11.866Z,62.07
2018-05-13T17:39:41.377Z,62.20
2018-05-13T17:42:11.498Z,65.17
2018-05-13T17:44:40.997Z,62.63
2018-05-13T17:47:23.208Z,63.30
2018-05-13T17:52:47.527Z,73.10
2018-05-13T17:58:27.472Z,79.37
2018-05-13T18:00:57.783Z,73.73
2018-05-13T18:03:30.078Z,71.53
2018-05-13T18:05:59.988Z,71.87
2018-05-13T18:08:30.212Z,77.13
2018-05-13T18:11:00.066Z,70.70
2018-05-13T18:13:30.041Z,70.27
2018-05-13T18:16:01.009Z,73.03
2018-05-13T18:18:31.761Z,75.43
2018-05-13T18:21:14.209Z,72.93
2018-05-13T18:23:44.085Z,81.00
2018-05-13T18:26:13.927Z,80.53
2018-05-13T18:28:45.051Z,86.80
2018-05-13T18:31:15.222Z,88.30
2018-05-13T18:33:45.352Z,83.47
2018-05-13T18:36:15.561Z,83.93
2018-05-13T18:38:45.553Z,79.50
2018-05-13T18:41:15.557Z,81.13
2018-05-13T18:43:45.490Z,86.13
2018-05-13T18:46:15.859Z,91.90
2018-05-13T18:48:45.798Z,89.97
2018-05-13T18:51:17.091Z,80.90
2018-05-13T18:53:48.115Z,84.67
2018-05-13T18:56:19.690Z,90.90
2018-05-13T18:58:50.672Z,95.47
2018-05-13T19:01:20.510Z,84.43
2018-05-13T19:03:50.680Z,82.80
2018-05-13T19:06:26.591Z,87.03
2018-05-13T19:08:58.551Z,88.67
2018-05-13T19:11:51.578Z,77.50
2018-05-13T19:14:25.666Z,77.87
2018-05-13T19:16:55.673Z,79.80
2018-05-13T19:19:25.908Z,74.33
2018-05-13T19:21:55.864Z,83.97
2018-05-13T19:24:25.971Z,75.00
2018-05-13T19:30:01.216Z,68.30
2018-05-13T19:32:31.236Z,72.83
2018-05-13T19:35:01.596Z,66.43
2018-05-13T19:37:31.820Z,72.87
2018-05-13T19:40:22.562Z,66.60
2018-05-13T19:42:54.518Z,67.07
2018-05-13T19:45:24.661Z,59.67
2018-05-13T19:47:54.687Z,58.03
2018-05-13T19:50:25.011Z,64.33
2018-05-13T19:52:55.551Z,61.67
2018-05-13T19:55:25.528Z,61.37
2018-05-13T19:57:56.739Z,60.90
2018-05-13T20:00:26.709Z,61.43
2018-05-13T20:02:56.395Z,60.90
2018-05-13T20:05:26.999Z,57.33
2018-05-13T20:07:57.402Z,62.10
2018-05-13T20:10:27.086Z,60.80
2018-05-13T20:12:57.366Z,58.70
2018-05-13T20:15:34.656Z,64.00
2018-05-13T20:18:03.901Z,65.80
2018-05-13T20:20:33.116Z,59.30
2018-05-13T20:23:19.707Z,62.10
2018-05-13T20:25:50.449Z,63.47
2018-05-13T20:28:19.109Z,58.70
2018-05-13T20:30:47.887Z,62.80
2018-05-13T20:33:17.422Z,62.57
2018-05-13T20:35:48.356Z,57.43
2018-05-13T20:38:18.636Z,67.67
2018-05-13T20:40:56.867Z,64.53
2018-05-13T20:43:27.363Z,67.50
2018-05-13T20:45:56.171Z,71.30
2018-05-13T20:48:52.056Z,77.00
2018-05-13T20:51:20.752Z,65.93
2018-05-13T20:53:49.235Z,69.53
2018-05-13T20:56:25.596Z,75.20
2018-05-13T20:58:54.448Z,75.60
2018-05-13T21:01:49.052Z,71.70
2018-05-13T21:04:36.667Z,74.73
2018-05-13T21:07:05.284Z,81.83
2018-05-13T21:12:45.253Z,82.73
2018-05-13T21:15:13.869Z,76.40
2018-05-13T21:20:53.183Z,83.40
2018-05-13T21:23:22.043Z,81.13
2018-05-13T21:25:54.250Z,75.17
2018-05-13T21:34:27.125Z,81.80
2018-05-13T21:37:11.954Z,82.87
2018-05-13T21:39:42.133Z,92.67
2018-05-13T21:42:12.341Z,77.93
2018-05-13T21:44:50.138Z,77.43
2018-05-13T21:47:20.244Z,86.80
2018-05-13T21:49:53.873Z,92.50
2018-05-13T21:52:25.398Z,82.23
2018-05-13T21:54:54.590Z,78.43
2018-05-13T21:57:23.179Z,91.50
2018-05-13T21:59:51.889Z,86.57
2018-05-13T22:02:20.787Z,96.77
2018-05-13T22:04:59.708Z,90.63
2018-05-13T22:07:28.243Z,86.43
2018-05-13T22:09:56.994Z,91.27
2018-05-13T22:12:25.769Z,87.30
2018-05-13T22:14:54.625Z,99.63
2018-05-13T22:17:23.220Z,89.57
2018-05-13T22:19:52.061Z,85.83
2018-05-13T22:22:21.158Z,85.63
2018-05-13T22:24:51.065Z,88.93
2018-05-13T22:27:24.246Z,88.13
2018-05-13T22:29:52.788Z,95.17
2018-05-13T22:32:21.336Z,92.17
2018-05-13T22:34:52.953Z,102.40
2018-05-13T22:37:21.644Z,85.97
2018-05-13T22:39:50.134Z,96.50
2018-05-13T22:42:20.738Z,95.17
2018-05-13T22:44:49.282Z,87.57
2018-05-13T22:47:19.164Z,91.87
2018-05-13T22:49:47.796Z,90.50
2018-05-13T22:52:18.434Z,93.50
2018-05-13T22:54:48.356Z,92.60
2018-05-13T22:57:19.975Z,91.17
2018-05-13T22:59:48.800Z,94.40
2018-05-13T23:02:18.383Z,93.03
2018-05-13T23:04:47.650Z,97.93
2018-05-13T23:07:17.252Z,89.60
2018-05-13T23:09:45.822Z,106.50
2018-05-13T23:12:14.499Z,100.90
2018-05-13T23:14:43.436Z,94.23
2018-05-13T23:17:16.581Z,101.17
2018-05-13T23:19:45.601Z,100.07
2018-05-13T23:22:32.195Z,106.90
2018-05-13T23:25:00.965Z,117.40
2018-05-13T23:27:32.408Z,98.23
2018-05-13T23:30:03.734Z,102.27
2018-05-13T23:32:33.124Z,103.20
2018-05-13T23:35:02.696Z,110.03
2018-05-13T23:37:33.408Z,114.20
2018-05-13T23:40:04.276Z,108.90
2018-05-13T23:42:33.582Z,113.30
2018-05-13T23:45:02.856Z,122.53
2018-05-13T23:47:34.354Z,120.03
2018-05-13T23:50:04.895Z,127.33
2018-05-13T23:52:33.440Z,123.23
2018-05-13T23:55:01.985Z,124.73
2018-05-13T23:57:30.539Z,130.30
2018-05-13T23:59:59.064Z,116.90
